Flight Track Log - Related Links

Times and Time Zones

All times are in EDT time to prevent confusion due to time zone crossing. See the N56210 flight status page for this flight to view local times or setup timezone preferences in your user account.

Time Position Orientation Groundspeed Altitude Reporting Facility
EDT Latitude Longitude Course Direction KTS MPH feet Rate Location/Type
Sun 08:43:21 AM 41.3667 -73.0833 21° North 131 151 3,500  Level New York TRACON
Sun 08:44:21 AM 41.4000 -73.0667 21° North 132 152 3,500 -41 Level New York TRACON
Sun 08:45:48 AM 41.4442 -73.0522 14° North 132 152 3,400 -41 Descending Boston Center
Sun 08:46:48 AM 41.4797 -73.0358 19° North 131 151 3,400  Level Boston Center
Sun 08:47:43 AM 41.5111 -73.0222 18° North 130 150 3,400  Level Boston Center
Sun 08:48:44 AM 41.5467 -73.0058 19° North 132 152 3,400  Level Boston Center
Sun 08:49:50 AM 41.5822 -72.9867 22° Northeast 129 148 3,400 47 Level Boston Center
Sun 08:50:51 AM 41.6197 -72.9678 21° North 128 147 3,500 49 Climbing Boston Center
Sun 08:51:52 AM 41.6511 -72.9542 18° North 127 146 3,500  Level Boston Center
Sun 08:52:46 AM 41.6825 -72.9403 18° North 127 146 3,500 -50 Level Boston Center
Sun 08:53:53 AM 41.7178 -72.9211 22° Northeast 127 146 3,400 -49 Descending Boston Center
Sun 08:54:48 AM 41.7492 -72.9075 18° North 126 145 3,400  Level Boston Center
Sun 08:55:49 AM 41.7806 -72.8883 24° Northeast 125 144 3,400 52 Level Boston Center
Sun 08:56:43 AM 41.8119 -72.8772 15° North 125 144 3,500  Climbing Boston Center
Sun 08:57:50 AM 41.8472 -72.8581 22° Northeast 125 144 3,400 -47 Descending Boston Center
Sun 08:58:51 AM 41.8808 -72.8417 20° North 125 144 3,400 47 Level Boston Center
Sun 08:59:57 AM 41.9142 -72.8222 23° Northeast 125 144 3,500 45 Climbing Boston Center
Sun 09:01:04 AM 41.9517 -72.8031 21° North 126 145 3,500  Level Boston Center
Sun 09:02:11 AM 41.9892 -72.7836 21° North 124 143 3,500 -188 Level Boston Center
Sun 09:03:12 AM 42.0228 -72.7642 23° Northeast 135 155 3,100 -626 Descending Boston Center
Sun 09:04:06 AM 42.0542 -72.7419 28° Northeast 138 159 2,300 -783 Descending Boston Center
Sun 09:05:07 AM 42.0894 -72.7339 10° North 139 160 1,600 -639 Descending Boston Center
Sun 09:06:08 AM 42.1228 -72.7283 North 106 122 1,000 -590 Descending Boston Center

Login

Don't have an account? Register now (free) for customized features, flight alerts, and more!